createdAt,value
2018-03-26T00:01:53.790Z,55.42
2018-03-26T00:04:20.106Z,55.30
2018-03-26T00:06:46.291Z,55.12
2018-03-26T00:09:13.954Z,54.63
2018-03-26T00:11:40.187Z,56.55
2018-03-26T00:14:06.410Z,56.47
2018-03-26T00:16:32.780Z,54.42
2018-03-26T00:18:59.152Z,54.60
2018-03-26T00:21:25.340Z,45.95
2018-03-26T00:23:51.593Z,52.13
2018-03-26T00:26:17.929Z,58.00
2018-03-26T00:28:44.146Z,54.25
2018-03-26T00:31:11.649Z,54.70
2018-03-26T00:33:38.696Z,53.67
2018-03-26T00:36:04.927Z,59.95
2018-03-26T00:38:31.198Z,55.55
2018-03-26T00:40:57.465Z,59.67
2018-03-26T00:43:23.733Z,58.50
2018-03-26T00:45:49.948Z,59.10
2018-03-26T00:48:16.181Z,53.80
2018-03-26T00:50:42.369Z,54.58
2018-03-26T00:53:09.353Z,57.17
2018-03-26T00:55:36.301Z,60.17
2018-03-26T00:58:02.569Z,55.30
2018-03-26T01:00:28.778Z,67.80
2018-03-26T01:02:55.827Z,62.05
2018-03-26T01:05:22.012Z,67.87
2018-03-26T01:07:48.315Z,67.57
2018-03-26T01:10:14.496Z,64.82
2018-03-26T01:12:40.716Z,67.70
2018-03-26T01:15:08.442Z,63.58
2018-03-26T01:17:34.902Z,74.20
2018-03-26T01:20:02.216Z,76.25
2018-03-26T01:22:29.266Z,75.82
2018-03-26T01:24:56.494Z,76.55
2018-03-26T01:27:22.678Z,82.62
2018-03-26T01:29:49.014Z,63.35
2018-03-26T01:32:15.259Z,73.78
2018-03-26T01:34:48.110Z,71.25
2018-03-26T01:37:15.129Z,73.72
2018-03-26T01:39:41.312Z,85.12
2018-03-26T01:42:08.848Z,74.28
2018-03-26T01:44:36.069Z,79.95
2018-03-26T01:47:02.944Z,74.70
2018-03-26T01:49:29.257Z,78.82
2018-03-26T01:51:56.804Z,77.12
2018-03-26T01:54:23.070Z,76.50
2018-03-26T01:56:50.074Z,83.15
2018-03-26T01:59:16.292Z,77.50
2018-03-26T02:01:42.476Z,79.12
2018-03-26T02:04:08.653Z,74.82
2018-03-26T02:06:35.240Z,84.60
2018-03-26T02:09:03.183Z,79.43
2018-03-26T02:11:30.179Z,89.37
2018-03-26T02:13:56.409Z,84.70
2018-03-26T02:16:23.354Z,82.35
2018-03-26T02:18:49.545Z,95.35
2018-03-26T02:21:15.735Z,79.05
2018-03-26T02:23:42.107Z,81.72
2018-03-26T02:26:09.030Z,87.22
2018-03-26T02:28:36.197Z,70.57
2018-03-26T02:31:02.441Z,79.35
2018-03-26T02:33:28.667Z,81.97
2018-03-26T02:35:54.850Z,79.15
2018-03-26T02:38:21.047Z,72.68
2018-03-26T02:40:47.260Z,71.25
2018-03-26T02:43:13.466Z,70.00
2018-03-26T02:45:39.690Z,70.47
2018-03-26T02:48:05.888Z,75.00
2018-03-26T02:50:32.082Z,69.15
2018-03-26T02:52:58.251Z,74.87
2018-03-26T02:55:24.390Z,67.40
2018-03-26T02:57:51.239Z,75.15
2018-03-26T03:00:17.461Z,69.12
2018-03-26T03:02:43.714Z,75.20
2018-03-26T03:05:09.992Z,64.60
2018-03-26T03:07:36.569Z,65.37
2018-03-26T03:10:02.925Z,60.75
2018-03-26T03:12:29.185Z,67.03
2018-03-26T03:14:55.405Z,67.65
2018-03-26T03:17:22.322Z,61.95
2018-03-26T03:19:50.114Z,53.30
2018-03-26T03:22:18.922Z,66.97
2018-03-26T03:24:49.117Z,63.10
2018-03-26T03:27:15.481Z,65.35
2018-03-26T03:29:44.748Z,56.22
2018-03-26T03:32:10.996Z,61.53
2018-03-26T03:34:37.345Z,54.20
2018-03-26T03:37:03.847Z,56.03
2018-03-26T03:39:31.192Z,57.17
2018-03-26T03:41:57.386Z,48.97
2018-03-26T03:44:24.335Z,58.13
2018-03-26T03:49:22.004Z,53.75
2018-03-26T03:51:49.049Z,54.40
2018-03-26T03:54:15.769Z,57.95
2018-03-26T03:56:42.933Z,58.85
2018-03-26T03:59:09.121Z,50.70
2018-03-26T04:01:36.060Z,50.83
2018-03-26T04:04:02.285Z,55.47
2018-03-26T04:06:29.837Z,51.30
2018-03-26T04:08:57.136Z,51.95
2018-03-26T04:11:23.345Z,53.95
2018-03-26T04:13:49.542Z,55.88
2018-03-26T04:16:15.854Z,51.35
2018-03-26T04:18:42.977Z,56.35
2018-03-26T04:21:09.329Z,55.20
2018-03-26T04:23:35.581Z,55.28
2018-03-26T04:26:01.744Z,55.25
2018-03-26T04:28:27.987Z,52.05
2018-03-26T04:30:54.179Z,60.60
2018-03-26T04:33:20.467Z,57.70
2018-03-26T04:35:46.715Z,65.15
2018-03-26T04:38:12.994Z,54.25
2018-03-26T04:40:42.936Z,54.97
2018-03-26T04:43:09.295Z,54.83
2018-03-26T04:45:35.631Z,55.67
2018-03-26T04:48:01.925Z,50.17
2018-03-26T04:50:28.820Z,55.60
2018-03-26T04:52:55.019Z,56.42
2018-03-26T04:55:21.166Z,60.05
2018-03-26T04:57:47.351Z,57.58
2018-03-26T05:00:13.635Z,49.33
2018-03-26T05:02:39.901Z,57.80
2018-03-26T05:05:06.110Z,56.00
2018-03-26T05:07:32.314Z,53.22
2018-03-26T05:09:58.478Z,57.97
2018-03-26T05:12:24.750Z,57.20
2018-03-26T05:14:51.036Z,55.88
2018-03-26T05:17:17.976Z,54.38
2018-03-26T05:19:44.197Z,44.45
2018-03-26T05:22:10.381Z,51.42
2018-03-26T05:24:37.602Z,56.95
2018-03-26T05:27:04.669Z,58.87
2018-03-26T05:29:31.621Z,56.65
2018-03-26T05:31:57.855Z,51.70
2018-03-26T05:34:24.076Z,60.17
2018-03-26T05:36:50.281Z,51.00
2018-03-26T05:39:16.601Z,64.70
2018-03-26T05:41:43.621Z,59.58
2018-03-26T05:44:11.094Z,61.65
2018-03-26T05:46:37.386Z,59.40
2018-03-26T05:49:03.894Z,56.45
2018-03-26T05:51:30.875Z,57.40
2018-03-26T05:53:57.063Z,55.90
2018-03-26T05:56:23.306Z,53.40
2018-03-26T05:58:49.508Z,56.00
2018-03-26T06:01:16.774Z,61.85
2018-03-26T06:03:43.086Z,55.42
2018-03-26T06:06:09.332Z,58.17
2018-03-26T06:08:35.585Z,59.60
2018-03-26T06:11:01.876Z,58.15
2018-03-26T06:13:28.165Z,59.72
2018-03-26T06:15:54.384Z,49.28
2018-03-26T06:18:20.625Z,52.35
2018-03-26T06:20:48.057Z,58.38
2018-03-26T06:23:14.322Z,50.50
2018-03-26T06:25:41.412Z,61.47
2018-03-26T06:28:07.768Z,55.63
2018-03-26T06:30:34.058Z,57.22
2018-03-26T06:33:00.224Z,56.03
2018-03-26T06:35:27.278Z,50.58
2018-03-26T06:37:56.501Z,51.53
2018-03-26T06:40:22.992Z,52.33
2018-03-26T06:42:50.225Z,53.22
2018-03-26T06:45:16.839Z,53.40
2018-03-26T06:47:43.506Z,54.20
2018-03-26T06:50:09.898Z,50.12
2018-03-26T06:52:36.393Z,48.58
2018-03-26T06:55:04.903Z,50.63
2018-03-26T06:57:31.453Z,51.97
2018-03-26T06:59:57.876Z,49.28
2018-03-26T07:02:24.346Z,47.70
2018-03-26T07:04:50.681Z,44.20
2018-03-26T07:07:17.073Z,55.63
2018-03-26T07:09:44.290Z,46.90
2018-03-26T07:12:10.717Z,46.60
2018-03-26T07:14:37.665Z,46.28
2018-03-26T07:17:04.079Z,52.95
2018-03-26T07:19:31.307Z,48.53
2018-03-26T07:21:58.558Z,52.05
2018-03-26T07:24:24.938Z,52.13
2018-03-26T07:26:51.298Z,44.20
2018-03-26T07:29:17.713Z,46.92
2018-03-26T07:31:45.098Z,45.30
2018-03-26T07:34:11.528Z,42.45
2018-03-26T07:36:38.024Z,45.20
2018-03-26T07:39:05.126Z,41.97
2018-03-26T07:41:31.508Z,43.67
2018-03-26T07:43:57.962Z,37.85
2018-03-26T07:46:25.369Z,34.17
2018-03-26T07:48:51.861Z,40.80
2018-03-26T07:51:18.246Z,31.48
2018-03-26T07:53:44.729Z,33.70
2018-03-26T07:56:11.163Z,28.02
2018-03-26T07:58:38.469Z,31.52
2018-03-26T08:01:06.580Z,25.73
2018-03-26T08:03:33.663Z,25.67
2018-03-26T08:06:00.076Z,30.70
2018-03-26T08:08:26.408Z,31.12
2018-03-26T08:10:56.004Z,28.50
2018-03-26T08:13:22.206Z,30.00
2018-03-26T08:15:48.454Z,25.30
2018-03-26T08:18:14.698Z,27.45
2018-03-26T08:20:41.102Z,25.12
2018-03-26T08:23:07.281Z,26.80
2018-03-26T08:25:34.193Z,30.48
2018-03-26T08:28:00.585Z,28.85
2018-03-26T08:30:26.814Z,25.42
2018-03-26T08:32:53.016Z,24.42
2018-03-26T08:35:19.220Z,23.70
2018-03-26T08:37:46.142Z,23.30
2018-03-26T08:40:12.560Z,28.80
2018-03-26T08:42:38.781Z,26.62
2018-03-26T08:45:05.052Z,22.40
2018-03-26T08:47:32.365Z,26.60
2018-03-26T08:49:58.726Z,27.50
2018-03-26T08:52:25.803Z,26.60
2018-03-26T08:54:52.682Z,31.55
2018-03-26T08:57:18.962Z,28.95
2018-03-26T08:59:45.974Z,31.52
2018-03-26T09:02:12.311Z,27.52
2018-03-26T09:04:38.626Z,31.35
2018-03-26T09:07:04.907Z,28.20
2018-03-26T09:09:31.171Z,26.30
2018-03-26T09:11:57.394Z,25.85
2018-03-26T09:14:23.679Z,28.62
2018-03-26T09:16:50.659Z,26.55
2018-03-26T09:19:16.838Z,24.40
2018-03-26T09:21:43.139Z,25.70
2018-03-26T09:24:09.579Z,27.77
2018-03-26T09:26:35.796Z,27.33
2018-03-26T09:29:02.066Z,31.73
2018-03-26T09:31:28.285Z,25.35
2018-03-26T09:33:54.454Z,26.70
2018-03-26T09:36:20.749Z,25.27
2018-03-26T09:38:46.906Z,21.37
2018-03-26T09:41:13.142Z,20.62
2018-03-26T09:43:39.366Z,21.77
2018-03-26T09:46:05.580Z,19.27
2018-03-26T09:48:31.721Z,16.87
2018-03-26T09:50:57.893Z,17.30
2018-03-26T09:53:24.084Z,18.20
2018-03-26T09:55:50.187Z,21.75
2018-03-26T09:58:16.470Z,19.80
2018-03-26T10:00:47.578Z,13.88
2018-03-26T10:03:14.786Z,12.82
2018-03-26T10:05:41.055Z,13.10
2018-03-26T10:08:07.244Z,16.20
2018-03-26T10:10:34.199Z,14.80
2018-03-26T10:13:00.347Z,10.23
2018-03-26T10:15:26.677Z,12.10
2018-03-26T10:17:53.619Z,12.20
2018-03-26T10:20:20.403Z,12.88
2018-03-26T10:22:46.647Z,8.68
2018-03-26T10:25:12.939Z,8.48
2018-03-26T10:27:39.337Z,8.13
2018-03-26T10:30:05.824Z,8.75
2018-03-26T10:32:32.148Z,12.63
2018-03-26T10:34:58.312Z,16.92
2018-03-26T10:37:25.394Z,12.43
2018-03-26T10:39:52.402Z,8.85
2018-03-26T10:42:20.395Z,9.23
2018-03-26T10:44:46.803Z,11.02
2018-03-26T10:47:13.424Z,14.70
2018-03-26T10:49:39.679Z,14.70
2018-03-26T10:52:06.014Z,14.75
2018-03-26T10:54:32.406Z,15.38
2018-03-26T10:56:58.692Z,8.50
2018-03-26T10:59:25.749Z,11.77
2018-03-26T11:01:52.680Z,7.40
2018-03-26T11:04:22.387Z,7.87
2018-03-26T11:06:48.623Z,6.82
2018-03-26T11:09:14.881Z,5.72
2018-03-26T11:11:41.130Z,3.90
2018-03-26T11:14:07.851Z,5.18
2018-03-26T11:16:34.166Z,5.07
2018-03-26T11:19:00.401Z,4.60
2018-03-26T11:21:29.188Z,4.05
2018-03-26T11:23:55.417Z,4.03
2018-03-26T11:26:21.649Z,7.00
2018-03-26T11:28:47.938Z,3.50
2018-03-26T11:31:14.138Z,4.55
2018-03-26T11:33:40.413Z,3.00
2018-03-26T11:36:07.441Z,6.82
2018-03-26T11:38:33.734Z,3.30
2018-03-26T11:41:03.732Z,2.55
2018-03-26T11:43:30.904Z,3.22
2018-03-26T11:45:57.217Z,3.37
2018-03-26T11:48:23.501Z,3.00
2018-03-26T11:50:49.889Z,2.83
2018-03-26T11:53:16.273Z,3.87
2018-03-26T11:55:43.200Z,4.15
2018-03-26T11:58:09.578Z,3.28
2018-03-26T12:00:39.709Z,3.30
2018-03-26T12:03:06.094Z,3.25
2018-03-26T12:05:32.476Z,4.72
2018-03-26T12:07:58.801Z,5.57
2018-03-26T12:10:25.878Z,4.47
2018-03-26T12:12:52.247Z,3.90
2018-03-26T12:15:18.579Z,3.92
2018-03-26T12:17:44.899Z,4.78
2018-03-26T12:20:23.464Z,3.87
2018-03-26T12:22:50.424Z,2.72
2018-03-26T12:25:16.891Z,3.53
2018-03-26T12:27:56.857Z,5.32
2018-03-26T12:30:23.128Z,3.78
2018-03-26T12:32:49.574Z,3.50
2018-03-26T12:35:34.109Z,3.10
2018-03-26T12:38:00.261Z,3.70
2018-03-26T12:40:38.953Z,1.85
2018-03-26T12:43:06.208Z,2.53
2018-03-26T12:45:44.724Z,3.60
2018-03-26T12:48:10.898Z,4.32
2018-03-26T12:50:53.323Z,3.03
2018-03-26T12:53:19.831Z,3.20
2018-03-26T12:55:46.965Z,3.75
2018-03-26T12:58:25.278Z,5.03
2018-03-26T13:01:03.960Z,3.28
2018-03-26T13:03:30.370Z,3.72
2018-03-26T13:05:56.928Z,2.33
2018-03-26T13:08:23.303Z,2.58
2018-03-26T13:10:49.923Z,4.85
2018-03-26T13:13:20.327Z,2.08
2018-03-26T13:15:46.929Z,1.70
2018-03-26T13:18:13.122Z,3.78
2018-03-26T13:20:39.700Z,1.65
2018-03-26T13:23:06.189Z,2.67
2018-03-26T13:25:32.689Z,2.10
2018-03-26T13:27:59.190Z,3.87
2018-03-26T13:30:25.414Z,1.62
2018-03-26T13:32:51.713Z,3.37
2018-03-26T13:35:18.064Z,3.53
2018-03-26T13:37:44.328Z,2.20
2018-03-26T13:40:10.532Z,2.65
2018-03-26T13:42:36.961Z,2.53
2018-03-26T13:45:03.820Z,3.30
2018-03-26T13:47:30.063Z,3.25
2018-03-26T13:49:57.221Z,2.50
2018-03-26T13:52:23.495Z,3.70
2018-03-26T13:54:50.956Z,3.30
2018-03-26T13:57:17.234Z,3.25
2018-03-26T13:59:43.413Z,3.00
2018-03-26T14:02:09.632Z,2.92
2018-03-26T14:04:35.921Z,2.87
2018-03-26T14:07:02.322Z,2.50
2018-03-26T14:09:41.533Z,2.72
2018-03-26T14:12:19.921Z,2.50
2018-03-26T14:14:58.953Z,3.45
2018-03-26T14:17:37.614Z,3.90
2018-03-26T14:20:05.361Z,3.75
2018-03-26T14:22:31.564Z,2.75
2018-03-26T14:24:57.875Z,2.28
2018-03-26T14:27:24.105Z,2.55
2018-03-26T14:29:52.116Z,2.83
2018-03-26T14:32:18.338Z,5.00
2018-03-26T14:34:57.626Z,3.67
2018-03-26T14:37:24.143Z,2.60
2018-03-26T14:39:50.601Z,4.43
2018-03-26T14:42:16.799Z,6.18
2018-03-26T14:44:43.122Z,5.00
2018-03-26T14:47:10.408Z,2.50
2018-03-26T14:49:37.333Z,3.17
2018-03-26T14:52:03.694Z,3.37
2018-03-26T14:54:29.967Z,3.05
2018-03-26T14:56:57.153Z,2.28
2018-03-26T14:59:23.458Z,2.67
2018-03-26T15:01:49.780Z,2.67
2018-03-26T15:04:16.989Z,2.45
2018-03-26T15:06:43.179Z,4.95
2018-03-26T15:09:09.499Z,1.70
2018-03-26T15:11:36.309Z,2.42
2018-03-26T15:14:02.696Z,2.30
2018-03-26T15:16:28.893Z,4.65
2018-03-26T15:18:56.004Z,3.60
2018-03-26T15:21:22.390Z,2.50
2018-03-26T15:23:48.857Z,1.80
2018-03-26T15:26:15.148Z,1.58
2018-03-26T15:28:41.370Z,3.72
2018-03-26T15:31:07.704Z,3.90
2018-03-26T15:33:33.969Z,4.12
2018-03-26T15:36:00.169Z,2.65
2018-03-26T15:38:26.432Z,3.45
2018-03-26T15:40:52.733Z,3.12
2018-03-26T15:43:19.718Z,3.17
2018-03-26T15:45:46.687Z,2.22
2018-03-26T15:48:12.914Z,3.03
2018-03-26T15:50:39.873Z,2.90
2018-03-26T15:53:06.042Z,4.25
2018-03-26T15:55:34.191Z,6.03
2018-03-26T15:58:01.263Z,6.30
2018-03-26T16:00:29.493Z,7.30
2018-03-26T16:03:02.126Z,4.78
2018-03-26T16:05:28.405Z,4.53
2018-03-26T16:07:54.718Z,5.78
2018-03-26T16:10:21.009Z,4.57
2018-03-26T16:12:47.332Z,4.15
2018-03-26T16:15:13.652Z,3.70
2018-03-26T16:17:39.872Z,5.28
2018-03-26T16:20:06.170Z,5.60
2018-03-26T16:22:32.442Z,4.57
2018-03-26T16:24:58.722Z,4.28
2018-03-26T16:27:29.622Z,4.95
2018-03-26T16:29:56.200Z,4.18
2018-03-26T16:32:22.545Z,5.95
2018-03-26T16:34:49.110Z,3.83
2018-03-26T16:37:19.794Z,8.00
2018-03-26T16:39:50.352Z,3.85
2018-03-26T16:42:18.520Z,5.55
2018-03-26T16:44:45.606Z,6.87
2018-03-26T16:47:11.826Z,3.60
2018-03-26T16:49:38.952Z,6.20
2018-03-26T16:52:06.034Z,4.12
2018-03-26T16:54:32.257Z,4.60
2018-03-26T16:59:44.430Z,5.40
2018-03-26T17:02:14.509Z,7.35
2018-03-26T17:04:40.728Z,5.22
2018-03-26T17:07:09.448Z,4.15
2018-03-26T17:09:35.825Z,4.25
2018-03-26T17:12:02.134Z,7.53
2018-03-26T17:14:28.348Z,5.45
2018-03-26T17:16:55.449Z,6.65
2018-03-26T17:19:21.689Z,5.12
2018-03-26T17:21:48.041Z,8.40
2018-03-26T17:24:14.370Z,6.82
2018-03-26T17:26:40.650Z,6.47
2018-03-26T17:29:06.937Z,3.50
2018-03-26T17:31:34.127Z,4.75
2018-03-26T17:34:00.383Z,4.62
2018-03-26T17:36:29.722Z,4.82
2018-03-26T17:38:55.954Z,5.70
2018-03-26T17:41:22.253Z,4.80
2018-03-26T17:43:48.584Z,5.70
2018-03-26T17:46:14.873Z,7.47
2018-03-26T17:48:41.093Z,5.70
2018-03-26T17:51:07.498Z,4.50
2018-03-26T17:53:34.148Z,6.18
2018-03-26T17:56:00.367Z,4.60
2018-03-26T17:58:27.389Z,4.80
2018-03-26T18:00:53.740Z,7.22
2018-03-26T18:03:20.068Z,5.25
2018-03-26T18:05:47.171Z,7.40
2018-03-26T18:08:13.597Z,5.30
2018-03-26T18:10:39.834Z,5.50
2018-03-26T18:13:08.143Z,7.25
2018-03-26T18:15:34.590Z,4.53
2018-03-26T18:18:00.823Z,6.25
2018-03-26T18:20:27.136Z,6.22
2018-03-26T18:22:54.171Z,9.02
2018-03-26T18:25:21.287Z,6.82
2018-03-26T18:27:47.590Z,6.37
2018-03-26T18:30:15.058Z,5.50
2018-03-26T18:32:41.344Z,4.57
2018-03-26T18:35:07.654Z,5.65
2018-03-26T18:37:34.748Z,4.55
2018-03-26T18:40:01.159Z,8.05
2018-03-26T18:42:28.101Z,5.57
2018-03-26T18:44:55.150Z,4.97
2018-03-26T18:47:21.412Z,4.30
2018-03-26T18:49:47.687Z,8.18
2018-03-26T18:52:13.953Z,5.95
2018-03-26T18:54:40.211Z,7.00
2018-03-26T18:57:06.385Z,12.73
2018-03-26T18:59:33.341Z,6.68
2018-03-26T19:02:00.269Z,7.12
2018-03-26T19:04:26.523Z,7.37
2018-03-26T19:06:53.499Z,8.60
2018-03-26T19:09:21.204Z,8.57
2018-03-26T19:11:47.448Z,7.40
2018-03-26T19:14:13.744Z,5.82
2018-03-26T19:16:40.803Z,8.02
2018-03-26T19:19:08.613Z,7.53
2018-03-26T19:21:35.188Z,7.40
2018-03-26T19:24:01.567Z,7.37
2018-03-26T19:26:27.754Z,10.65
2018-03-26T19:28:53.898Z,9.38
2018-03-26T19:31:20.054Z,8.95
2018-03-26T19:33:47.079Z,8.68
2018-03-26T19:36:13.344Z,7.93
2018-03-26T19:38:42.527Z,11.65
2018-03-26T19:41:09.231Z,8.10
2018-03-26T19:43:36.250Z,8.30
2018-03-26T19:46:02.549Z,7.18
2018-03-26T19:48:28.880Z,7.50
2018-03-26T19:50:55.088Z,10.38
2018-03-26T19:53:22.113Z,9.35
2018-03-26T19:55:48.880Z,9.10
2018-03-26T19:58:15.287Z,8.95
2018-03-26T20:00:42.226Z,8.55
2018-03-26T20:03:08.532Z,11.77
2018-03-26T20:05:34.810Z,10.82
2018-03-26T20:08:01.043Z,11.75
2018-03-26T20:10:30.545Z,9.30
2018-03-26T20:12:57.730Z,8.25
2018-03-26T20:15:23.962Z,10.65
2018-03-26T20:17:50.237Z,11.85
2018-03-26T20:20:16.512Z,9.98
2018-03-26T20:22:42.982Z,10.60
2018-03-26T20:25:09.178Z,8.40
2018-03-26T20:27:35.494Z,9.40
2018-03-26T20:30:02.614Z,8.25
2018-03-26T20:32:28.889Z,10.57
2018-03-26T20:34:55.229Z,12.10
2018-03-26T20:37:21.463Z,11.75
2018-03-26T20:39:47.785Z,10.05
2018-03-26T20:42:14.006Z,9.40
2018-03-26T20:44:40.442Z,6.62
2018-03-26T20:47:07.617Z,5.45
2018-03-26T20:49:34.143Z,4.72
2018-03-26T20:52:00.559Z,4.60
2018-03-26T21:42:11.666Z,6.30
2018-03-26T21:44:39.742Z,6.12
2018-03-26T21:47:07.098Z,7.93
2018-03-26T21:49:34.040Z,7.87
2018-03-26T21:52:01.319Z,7.40
2018-03-26T21:54:27.827Z,6.62
2018-03-26T21:56:56.081Z,9.02
2018-03-26T21:59:23.664Z,8.00
2018-03-26T22:01:51.505Z,9.40
2018-03-26T22:04:19.224Z,9.00
2018-03-26T22:06:47.927Z,7.93
2018-03-26T22:09:16.999Z,7.70
2018-03-26T22:11:44.165Z,8.07
2018-03-26T22:14:13.028Z,9.48
2018-03-26T22:16:40.378Z,8.55
2018-03-26T22:19:06.819Z,10.05
2018-03-26T22:21:33.885Z,9.15
2018-03-26T22:24:01.429Z,9.38
2018-03-26T22:26:28.524Z,9.02
2018-03-26T22:28:57.196Z,8.45
2018-03-26T22:31:23.897Z,9.18
2018-03-26T22:33:53.002Z,8.70
2018-03-26T22:36:20.083Z,8.27
2018-03-26T22:38:49.100Z,10.90
2018-03-26T22:41:15.596Z,12.20
2018-03-26T22:43:41.910Z,9.30
2018-03-26T22:46:08.134Z,9.65
2018-03-26T22:48:35.374Z,9.02
2018-03-26T22:51:03.357Z,9.85
2018-03-26T22:53:29.580Z,10.25
2018-03-26T22:55:55.783Z,10.60
2018-03-26T22:58:22.725Z,11.40
2018-03-26T23:00:48.980Z,9.73
2018-03-26T23:03:16.855Z,10.75
2018-03-26T23:05:45.025Z,10.27
2018-03-26T23:08:11.427Z,11.73
2018-03-26T23:10:41.331Z,13.60
2018-03-26T23:13:09.417Z,13.38
2018-03-26T23:15:37.877Z,12.23
2018-03-26T23:18:04.198Z,16.30
2018-03-26T23:20:30.595Z,15.32
2018-03-26T23:22:57.815Z,14.93
2018-03-26T23:25:25.132Z,17.12
2018-03-26T23:27:51.298Z,17.95
2018-03-26T23:30:17.510Z,14.55
2018-03-26T23:32:43.859Z,22.95
2018-03-26T23:35:10.146Z,15.55
2018-03-26T23:37:36.328Z,15.30
2018-03-26T23:40:02.481Z,17.85
2018-03-26T23:42:28.697Z,16.20
2018-03-26T23:44:54.896Z,18.40
2018-03-26T23:47:21.898Z,17.40
2018-03-26T23:49:48.178Z,16.45
2018-03-26T23:52:14.502Z,14.43
2018-03-26T23:54:40.727Z,15.00
2018-03-26T23:57:06.972Z,14.38
2018-03-26T23:59:33.486Z,13.82
